Terminal Aerodrome Forecast
Issued by NWS

Home | Current Version | Previous Version | Text Only | Print | Product List | Glossary Off
Versions: 1 2 3 4 5 6 7 8 9 10 11 12

000
FTUS43 KICT 151120
TAFCNU
TAF
KCNU 151120Z 1512/1612 34012G18KT P6SM SKC
     FM152200 33010KT P6SM SKC
     FM160000 VRB04KT P6SM SKC=

USA.gov is the U.S. government's official web portal to all federal, state and local government web resources and services.